sensor_id;sensor_type;location;lat;lon;timestamp;pressure;altitude;pressure_sealevel;temperature;humidity
49915;BME280;35806;47.958;13.158;2022-10-16T00:02:03;94784.28;;;14.19;59.33
49915;BME280;35806;47.958;13.158;2022-10-16T00:04:30;94787.99;;;14.56;58.94
49915;BME280;35806;47.958;13.158;2022-10-16T00:06:58;94786.85;;;14.57;58.99
49915;BME280;35806;47.958;13.158;2022-10-16T00:09:25;94789.21;;;14.50;58.74
49915;BME280;35806;47.958;13.158;2022-10-16T00:11:53;94786.88;;;13.19;61.82
49915;BME280;35806;47.958;13.158;2022-10-16T00:14:21;94786.89;;;14.54;59.39
49915;BME280;35806;47.958;13.158;2022-10-16T00:16:48;94785.75;;;14.70;58.14
49915;BME280;35806;47.958;13.158;2022-10-16T00:19:16;94783.69;;;14.32;58.57
49915;BME280;35806;47.958;13.158;2022-10-16T00:21:43;94778.52;;;14.59;58.52
49915;BME280;35806;47.958;13.158;2022-10-16T00:24:11;94780.05;;;14.62;58.62
49915;BME280;35806;47.958;13.158;2022-10-16T00:26:39;94780.63;;;14.76;58.26
49915;BME280;35806;47.958;13.158;2022-10-16T00:29:06;94776.27;;;14.25;59.00
49915;BME280;35806;47.958;13.158;2022-10-16T00:31:34;94780.12;;;14.93;57.56
49915;BME280;35806;47.958;13.158;2022-10-16T00:34:02;94785.47;;;15.02;57.20
49915;BME280;35806;47.958;13.158;2022-10-16T00:36:29;94789.29;;;14.78;57.78
49915;BME280;35806;47.958;13.158;2022-10-16T00:38:57;94791.52;;;15.04;57.21
49915;BME280;35806;47.958;13.158;2022-10-16T00:41:26;94792.70;;;14.62;57.89
49915;BME280;35806;47.958;13.158;2022-10-16T00:43:54;94794.02;;;14.55;57.61
49915;BME280;35806;47.958;13.158;2022-10-16T00:46:24;94794.56;;;14.23;57.87
49915;BME280;35806;47.958;13.158;2022-10-16T00:48:55;94796.87;;;14.15;58.72
49915;BME280;35806;47.958;13.158;2022-10-16T00:51:30;94801.48;;;13.32;60.81
49915;BME280;35806;47.958;13.158;2022-10-16T00:53:57;94804.54;;;12.60;63.83
49915;BME280;35806;47.958;13.158;2022-10-16T00:56:26;94801.40;;;13.37;61.92
49915;BME280;35806;47.958;13.158;2022-10-16T00:58:53;94806.87;;;11.96;65.76
49915;BME280;35806;47.958;13.158;2022-10-16T01:15:32;94812.43;;;12.42;65.29
49915;BME280;35806;47.958;13.158;2022-10-16T01:18:05;94814.65;;;14.57;60.96
49915;BME280;35806;47.958;13.158;2022-10-16T01:20:37;94811.81;;;14.41;60.29
49915;BME280;35806;47.958;13.158;2022-10-16T01:23:14;94817.43;;;12.75;63.62
49915;BME280;35806;47.958;13.158;2022-10-16T01:25:57;94810.11;;;13.87;61.31
49915;BME280;35806;47.958;13.158;2022-10-16T01:28:32;94814.39;;;14.12;59.72
49915;BME280;35806;47.958;13.158;2022-10-16T01:31:01;94817.97;;;14.37;59.38
49915;BME280;35806;47.958;13.158;2022-10-16T01:33:35;94815.37;;;13.33;60.35
49915;BME280;35806;47.958;13.158;2022-10-16T01:36:07;94814.83;;;13.53;60.05
49915;BME280;35806;47.958;13.158;2022-10-16T01:38:38;94810.77;;;14.32;58.10
49915;BME280;35806;47.958;13.158;2022-10-16T01:41:10;94808.87;;;14.25;58.19
49915;BME280;35806;47.958;13.158;2022-10-16T01:43:42;94808.49;;;14.01;57.92
49915;BME280;35806;47.958;13.158;2022-10-16T01:46:13;94809.35;;;14.20;57.87
49915;BME280;35806;47.958;13.158;2022-10-16T01:48:42;94806.70;;;14.63;57.19
49915;BME280;35806;47.958;13.158;2022-10-16T01:51:12;94802.00;;;14.43;57.48
49915;BME280;35806;47.958;13.158;2022-10-16T01:53:43;94799.23;;;14.74;57.20
49915;BME280;35806;47.958;13.158;2022-10-16T01:56:13;94805.31;;;13.67;58.18
49915;BME280;35806;47.958;13.158;2022-10-16T01:58:47;94805.07;;;14.24;57.41
49915;BME280;35806;47.958;13.158;2022-10-16T02:01:17;94806.02;;;14.38;57.20
49915;BME280;35806;47.958;13.158;2022-10-16T02:03:48;94803.36;;;14.71;56.79
49915;BME280;35806;47.958;13.158;2022-10-16T02:06:17;94803.82;;;14.91;56.69
49915;BME280;35806;47.958;13.158;2022-10-16T02:08:44;94805.37;;;12.93;59.49
49915;BME280;35806;47.958;13.158;2022-10-16T02:11:11;94803.66;;;13.99;58.00
49915;BME280;35806;47.958;13.158;2022-10-16T02:13:43;94804.85;;;14.85;55.54
49915;BME280;35806;47.958;13.158;2022-10-16T02:16:12;94802.50;;;13.92;57.85
49915;BME280;35806;47.958;13.158;2022-10-16T02:18:40;94803.20;;;14.59;56.80
49915;BME280;35806;47.958;13.158;2022-10-16T02:21:13;94800.78;;;14.17;58.14
49915;BME280;35806;47.958;13.158;2022-10-16T02:23:48;94805.93;;;12.51;60.76
49915;BME280;35806;47.958;13.158;2022-10-16T02:26:24;94801.59;;;14.21;58.15
49915;BME280;35806;47.958;13.158;2022-10-16T02:28:59;94802.60;;;14.78;56.36
49915;BME280;35806;47.958;13.158;2022-10-16T02:31:30;94801.57;;;13.97;57.91
49915;BME280;35806;47.958;13.158;2022-10-16T02:34:00;94803.60;;;14.39;57.84
49915;BME280;35806;47.958;13.158;2022-10-16T02:36:29;94811.85;;;14.79;56.79
49915;BME280;35806;47.958;13.158;2022-10-16T02:38:58;94813.41;;;14.52;56.38
49915;BME280;35806;47.958;13.158;2022-10-16T02:41:26;94811.14;;;14.21;57.18
49915;BME280;35806;47.958;13.158;2022-10-16T02:43:54;94816.42;;;14.18;57.70
49915;BME280;35806;47.958;13.158;2022-10-16T02:46:22;94825.67;;;12.87;59.46
49915;BME280;35806;47.958;13.158;2022-10-16T02:48:49;94824.25;;;13.96;57.83
49915;BME280;35806;47.958;13.158;2022-10-16T02:51:17;94825.38;;;14.55;57.57
49915;BME280;35806;47.958;13.158;2022-10-16T02:53:44;94824.14;;;14.53;57.68
49915;BME280;35806;47.958;13.158;2022-10-16T02:56:11;94823.35;;;14.55;57.63
49915;BME280;35806;47.958;13.158;2022-10-16T02:58:39;94829.27;;;14.70;57.31
49915;BME280;35806;47.958;13.158;2022-10-16T03:01:06;94831.20;;;14.31;57.74
49915;BME280;35806;47.958;13.158;2022-10-16T03:03:34;94834.55;;;14.57;57.26
49915;BME280;35806;47.958;13.158;2022-10-16T03:06:01;94825.83;;;14.35;58.02
49915;BME280;35806;47.958;13.158;2022-10-16T03:08:29;94826.51;;;14.35;57.54
49915;BME280;35806;47.958;13.158;2022-10-16T03:10:57;94834.69;;;14.95;56.38
49915;BME280;35806;47.958;13.158;2022-10-16T03:13:24;94834.57;;;14.49;57.21
49915;BME280;35806;47.958;13.158;2022-10-16T03:15:51;94840.38;;;14.14;56.77
49915;BME280;35806;47.958;13.158;2022-10-16T03:18:19;94845.37;;;14.28;56.77
49915;BME280;35806;47.958;13.158;2022-10-16T03:20:46;94849.40;;;13.14;58.34
49915;BME280;35806;47.958;13.158;2022-10-16T03:23:14;94848.72;;;14.78;55.89
49915;BME280;35806;47.958;13.158;2022-10-16T03:25:41;94844.94;;;12.58;61.16
49915;BME280;35806;47.958;13.158;2022-10-16T03:28:08;94838.25;;;13.95;58.62
49915;BME280;35806;47.958;13.158;2022-10-16T03:30:35;94834.33;;;14.06;57.91
49915;BME280;35806;47.958;13.158;2022-10-16T03:33:03;94835.84;;;13.96;58.50
49915;BME280;35806;47.958;13.158;2022-10-16T03:35:29;94836.74;;;13.78;58.45
49915;BME280;35806;47.958;13.158;2022-10-16T03:37:56;94835.30;;;14.25;58.20
49915;BME280;35806;47.958;13.158;2022-10-16T03:40:24;94840.47;;;14.21;58.26
49915;BME280;35806;47.958;13.158;2022-10-16T03:42:51;94839.59;;;13.99;58.95
49915;BME280;35806;47.958;13.158;2022-10-16T03:45:19;94839.78;;;13.31;59.04
49915;BME280;35806;47.958;13.158;2022-10-16T03:47:46;94843.25;;;14.18;57.94
49915;BME280;35806;47.958;13.158;2022-10-16T03:50:14;94842.21;;;14.07;57.88
49915;BME280;35806;47.958;13.158;2022-10-16T03:52:41;94845.87;;;13.48;59.65
49915;BME280;35806;47.958;13.158;2022-10-16T03:55:08;94848.25;;;13.18;60.45
49915;BME280;35806;47.958;13.158;2022-10-16T03:57:36;94845.78;;;13.58;58.61
49915;BME280;35806;47.958;13.158;2022-10-16T04:00:04;94849.36;;;14.57;56.98
49915;BME280;35806;47.958;13.158;2022-10-16T04:02:31;94850.61;;;14.39;57.21
49915;BME280;35806;47.958;13.158;2022-10-16T04:04:59;94855.41;;;14.02;57.57
49915;BME280;35806;47.958;13.158;2022-10-16T04:07:26;94856.24;;;13.64;57.85
49915;BME280;35806;47.958;13.158;2022-10-16T04:09:54;94857.35;;;14.24;57.24
49915;BME280;35806;47.958;13.158;2022-10-16T04:12:22;94855.02;;;13.86;57.40
49915;BME280;35806;47.958;13.158;2022-10-16T04:14:49;94856.00;;;13.29;59.29
49915;BME280;35806;47.958;13.158;2022-10-16T04:17:17;94854.66;;;13.92;58.33
49915;BME280;35806;47.958;13.158;2022-10-16T04:19:44;94859.12;;;14.62;56.28
49915;BME280;35806;47.958;13.158;2022-10-16T04:22:12;94856.74;;;13.79;57.21
49915;BME280;35806;47.958;13.158;2022-10-16T04:24:39;94854.38;;;13.83;56.90
49915;BME280;35806;47.958;13.158;2022-10-16T04:27:07;94857.66;;;14.37;56.73
49915;BME280;35806;47.958;13.158;2022-10-16T04:29:34;94861.07;;;14.15;56.95
49915;BME280;35806;47.958;13.158;2022-10-16T04:32:02;94855.63;;;14.13;57.05
49915;BME280;35806;47.958;13.158;2022-10-16T04:34:29;94853.02;;;14.12;56.69
49915;BME280;35806;47.958;13.158;2022-10-16T04:36:57;94850.05;;;14.21;56.09
49915;BME280;35806;47.958;13.158;2022-10-16T04:39:25;94848.89;;;14.12;55.67
49915;BME280;35806;47.958;13.158;2022-10-16T04:41:52;94848.54;;;13.80;56.98
49915;BME280;35806;47.958;13.158;2022-10-16T04:44:19;94850.57;;;14.08;56.16
49915;BME280;35806;47.958;13.158;2022-10-16T04:46:47;94854.50;;;13.75;56.39
49915;BME280;35806;47.958;13.158;2022-10-16T04:49:14;94856.54;;;14.06;56.08
49915;BME280;35806;47.958;13.158;2022-10-16T04:51:42;94859.64;;;14.09;55.57
49915;BME280;35806;47.958;13.158;2022-10-16T04:54:10;94867.42;;;13.59;56.36
49915;BME280;35806;47.958;13.158;2022-10-16T04:56:37;94868.68;;;13.46;56.72
49915;BME280;35806;47.958;13.158;2022-10-16T04:59:05;94873.90;;;12.32;60.32
49915;BME280;35806;47.958;13.158;2022-10-16T05:01:32;94877.81;;;13.62;57.71
49915;BME280;35806;47.958;13.158;2022-10-16T05:04:00;94879.56;;;12.84;58.62
49915;BME280;35806;47.958;13.158;2022-10-16T05:06:27;94871.44;;;13.28;57.63
49915;BME280;35806;47.958;13.158;2022-10-16T05:08:55;94868.68;;;12.99;57.95
49915;BME280;35806;47.958;13.158;2022-10-16T05:11:22;94872.39;;;11.88;60.76
49915;BME280;35806;47.958;13.158;2022-10-16T05:13:50;94872.66;;;13.38;56.69
49915;BME280;35806;47.958;13.158;2022-10-16T05:16:17;94875.86;;;13.21;56.24
49915;BME280;35806;47.958;13.158;2022-10-16T05:18:45;94877.46;;;13.32;56.94
49915;BME280;35806;47.958;13.158;2022-10-16T05:21:12;94881.11;;;12.90;57.70
49915;BME280;35806;47.958;13.158;2022-10-16T05:23:40;94885.22;;;11.44;62.40
49915;BME280;35806;47.958;13.158;2022-10-16T05:26:07;94887.11;;;11.70;63.19
49915;BME280;35806;47.958;13.158;2022-10-16T05:28:34;94890.28;;;10.97;65.49
49915;BME280;35806;47.958;13.158;2022-10-16T05:31:04;94892.38;;;12.14;63.03
49915;BME280;35806;47.958;13.158;2022-10-16T05:33:32;94894.55;;;11.78;63.39
49915;BME280;35806;47.958;13.158;2022-10-16T05:36:01;94896.27;;;11.04;64.56
49915;BME280;35806;47.958;13.158;2022-10-16T05:38:28;94897.71;;;11.15;64.90
49915;BME280;35806;47.958;13.158;2022-10-16T05:40:55;94901.93;;;11.71;64.24
49915;BME280;35806;47.958;13.158;2022-10-16T05:43:23;94909.22;;;12.70;61.18
49915;BME280;35806;47.958;13.158;2022-10-16T05:45:55;94916.13;;;11.22;63.39
49915;BME280;35806;47.958;13.158;2022-10-16T05:48:22;94919.61;;;11.31;63.67
49915;BME280;35806;47.958;13.158;2022-10-16T05:50:57;94918.84;;;11.33;64.65
49915;BME280;35806;47.958;13.158;2022-10-16T05:53:24;94920.18;;;12.32;62.82
49915;BME280;35806;47.958;13.158;2022-10-16T05:55:52;94924.03;;;11.15;65.19
49915;BME280;35806;47.958;13.158;2022-10-16T05:58:19;94926.24;;;10.76;66.16
49915;BME280;35806;47.958;13.158;2022-10-16T06:00:53;94931.51;;;10.40;68.07
49915;BME280;35806;47.958;13.158;2022-10-16T06:03:21;94932.66;;;10.08;69.29
49915;BME280;35806;47.958;13.158;2022-10-16T06:05:48;94932.74;;;10.86;68.36
49915;BME280;35806;47.958;13.158;2022-10-16T06:08:16;94935.91;;;11.51;65.68
49915;BME280;35806;47.958;13.158;2022-10-16T06:10:43;94935.62;;;11.38;65.76
49915;BME280;35806;47.958;13.158;2022-10-16T06:13:11;94940.05;;;11.69;65.07
49915;BME280;35806;47.958;13.158;2022-10-16T06:15:39;94940.78;;;12.21;63.82
49915;BME280;35806;47.958;13.158;2022-10-16T06:18:06;94936.74;;;13.53;60.69
49915;BME280;35806;47.958;13.158;2022-10-16T06:20:33;94931.32;;;14.19;59.63
49915;BME280;35806;47.958;13.158;2022-10-16T06:23:01;94929.83;;;14.20;59.34
49915;BME280;35806;47.958;13.158;2022-10-16T06:25:28;94929.24;;;14.49;59.52
49915;BME280;35806;47.958;13.158;2022-10-16T06:27:56;94928.89;;;14.37;59.53
49915;BME280;35806;47.958;13.158;2022-10-16T06:30:23;94933.30;;;13.93;58.75
49915;BME280;35806;47.958;13.158;2022-10-16T06:32:51;94935.54;;;14.64;58.05
49915;BME280;35806;47.958;13.158;2022-10-16T06:35:18;94934.41;;;15.68;56.20
49915;BME280;35806;47.958;13.158;2022-10-16T06:37:46;94934.99;;;14.74;57.81
49915;BME280;35806;47.958;13.158;2022-10-16T06:40:13;94932.40;;;14.67;57.99
49915;BME280;35806;47.958;13.158;2022-10-16T06:42:41;94935.32;;;15.06;58.30
49915;BME280;35806;47.958;13.158;2022-10-16T06:45:09;94934.09;;;14.92;58.36
49915;BME280;35806;47.958;13.158;2022-10-16T06:47:36;94931.16;;;15.02;58.16
49915;BME280;35806;47.958;13.158;2022-10-16T06:50:05;94936.94;;;15.29;57.56
49915;BME280;35806;47.958;13.158;2022-10-16T06:52:32;94939.81;;;15.54;56.93
49915;BME280;35806;47.958;13.158;2022-10-16T06:54:59;94939.15;;;15.70;56.60
49915;BME280;35806;47.958;13.158;2022-10-16T06:57:27;94934.14;;;15.52;57.35
49915;BME280;35806;47.958;13.158;2022-10-16T06:59:54;94935.79;;;15.52;57.50
49915;BME280;35806;47.958;13.158;2022-10-16T07:02:22;94936.36;;;15.55;57.47
49915;BME280;35806;47.958;13.158;2022-10-16T07:04:49;94940.17;;;14.77;57.30
49915;BME280;35806;47.958;13.158;2022-10-16T07:07:17;94939.97;;;15.32;56.94
49915;BME280;35806;47.958;13.158;2022-10-16T07:09:44;94943.39;;;16.04;56.58
49915;BME280;35806;47.958;13.158;2022-10-16T07:12:18;94944.26;;;15.78;57.23
49915;BME280;35806;47.958;13.158;2022-10-16T07:14:45;94948.84;;;16.09;56.42
49915;BME280;35806;47.958;13.158;2022-10-16T07:17:19;94949.77;;;16.14;56.82
49915;BME280;35806;47.958;13.158;2022-10-16T07:19:46;94949.22;;;16.43;55.38
49915;BME280;35806;47.958;13.158;2022-10-16T07:22:13;94950.73;;;16.43;56.19
49915;BME280;35806;47.958;13.158;2022-10-16T07:24:41;94956.51;;;16.60;56.20
49915;BME280;35806;47.958;13.158;2022-10-16T07:27:08;94959.71;;;16.73;55.84
49915;BME280;35806;47.958;13.158;2022-10-16T07:29:36;94963.12;;;16.84;55.99
49915;BME280;35806;47.958;13.158;2022-10-16T07:32:04;94962.27;;;17.14;55.49
49915;BME280;35806;47.958;13.158;2022-10-16T07:34:32;94964.71;;;17.10;54.92
49915;BME280;35806;47.958;13.158;2022-10-16T07:36:59;94967.14;;;17.12;55.13
49915;BME280;35806;47.958;13.158;2022-10-16T07:39:26;94968.98;;;17.03;54.86
49915;BME280;35806;47.958;13.158;2022-10-16T07:41:54;94970.85;;;17.27;54.97
49915;BME280;35806;47.958;13.158;2022-10-16T07:44:22;94970.02;;;16.78;55.53
49915;BME280;35806;47.958;13.158;2022-10-16T07:47:00;94969.31;;;17.43;55.55
49915;BME280;35806;47.958;13.158;2022-10-16T07:49:27;94970.16;;;17.18;55.39
49915;BME280;35806;47.958;13.158;2022-10-16T07:51:54;94971.99;;;17.85;54.44
49915;BME280;35806;47.958;13.158;2022-10-16T07:54:22;94973.88;;;17.97;53.75
49915;BME280;35806;47.958;13.158;2022-10-16T07:56:49;94976.85;;;17.96;53.26
49915;BME280;35806;47.958;13.158;2022-10-16T07:59:17;94977.74;;;18.27;53.41
49915;BME280;35806;47.958;13.158;2022-10-16T08:01:44;94980.91;;;18.21;53.11
49915;BME280;35806;47.958;13.158;2022-10-16T08:04:18;94984.16;;;18.48;51.65
49915;BME280;35806;47.958;13.158;2022-10-16T08:06:44;94987.42;;;18.01;51.16
49915;BME280;35806;47.958;13.158;2022-10-16T08:09:12;94988.27;;;18.58;51.56
49915;BME280;35806;47.958;13.158;2022-10-16T08:11:39;94986.95;;;18.73;50.94
49915;BME280;35806;47.958;13.158;2022-10-16T08:14:07;94987.47;;;18.74;51.31
49915;BME280;35806;47.958;13.158;2022-10-16T08:16:34;94984.78;;;18.89;51.04
49915;BME280;35806;47.958;13.158;2022-10-16T08:19:02;94989.18;;;19.05;50.87
49915;BME280;35806;47.958;13.158;2022-10-16T08:21:29;94991.84;;;18.98;50.72
49915;BME280;35806;47.958;13.158;2022-10-16T08:23:57;95003.45;;;18.74;50.44
49915;BME280;35806;47.958;13.158;2022-10-16T08:26:26;95000.81;;;19.01;50.63
49915;BME280;35806;47.958;13.158;2022-10-16T08:28:54;95005.17;;;18.73;49.56
49915;BME280;35806;47.958;13.158;2022-10-16T08:31:21;95003.32;;;19.65;48.74
49915;BME280;35806;47.958;13.158;2022-10-16T08:33:49;95001.96;;;19.28;49.91
49915;BME280;35806;47.958;13.158;2022-10-16T08:36:17;95000.04;;;19.42;50.59
49915;BME280;35806;47.958;13.158;2022-10-16T08:38:48;95002.81;;;19.03;50.73
49915;BME280;35806;47.958;13.158;2022-10-16T08:41:32;95000.59;;;19.47;50.08
49915;BME280;35806;47.958;13.158;2022-10-16T08:44:18;95002.15;;;19.66;49.92
49915;BME280;35806;47.958;13.158;2022-10-16T08:46:58;95005.27;;;20.03;49.74
49915;BME280;35806;47.958;13.158;2022-10-16T08:49:30;95008.99;;;20.19;48.61
49915;BME280;35806;47.958;13.158;2022-10-16T08:51:58;95015.65;;;19.86;47.73
49915;BME280;35806;47.958;13.158;2022-10-16T08:54:29;95019.18;;;20.26;49.02
49915;BME280;35806;47.958;13.158;2022-10-16T08:57:07;95021.14;;;20.53;48.59
49915;BME280;35806;47.958;13.158;2022-10-16T08:59:35;95025.06;;;20.13;49.33
49915;BME280;35806;47.958;13.158;2022-10-16T09:02:18;95027.48;;;20.44;47.83
49915;BME280;35806;47.958;13.158;2022-10-16T09:04:58;95028.97;;;20.91;45.62
49915;BME280;35806;47.958;13.158;2022-10-16T09:07:34;95030.38;;;21.59;46.04
49915;BME280;35806;47.958;13.158;2022-10-16T09:10:20;95029.92;;;21.96;46.02
49915;BME280;35806;47.958;13.158;2022-10-16T09:12:54;95027.43;;;22.29;41.25
49915;BME280;35806;47.958;13.158;2022-10-16T09:15:30;95030.12;;;22.63;43.57
49915;BME280;35806;47.958;13.158;2022-10-16T09:18:03;95029.87;;;22.50;44.07
49915;BME280;35806;47.958;13.158;2022-10-16T09:20:40;95034.71;;;22.97;43.18
49915;BME280;35806;47.958;13.158;2022-10-16T09:23:17;95038.99;;;23.38;43.21
49915;BME280;35806;47.958;13.158;2022-10-16T09:25:47;95043.15;;;23.12;41.94
49915;BME280;35806;47.958;13.158;2022-10-16T09:28:16;95047.32;;;23.37;42.08
49915;BME280;35806;47.958;13.158;2022-10-16T09:30:49;95052.02;;;22.66;41.11
49915;BME280;35806;47.958;13.158;2022-10-16T09:33:19;95050.04;;;22.73;41.74
49915;BME280;35806;47.958;13.158;2022-10-16T09:35:50;95049.32;;;23.29;42.87
49915;BME280;35806;47.958;13.158;2022-10-16T09:38:23;95053.16;;;22.61;41.98
49915;BME280;35806;47.958;13.158;2022-10-16T09:40:52;95054.92;;;23.28;41.94
49915;BME280;35806;47.958;13.158;2022-10-16T09:43:23;95058.12;;;23.26;42.31
49915;BME280;35806;47.958;13.158;2022-10-16T09:45:55;95061.28;;;22.75;41.26
49915;BME280;35806;47.958;13.158;2022-10-16T09:48:22;95063.15;;;23.04;42.40
49915;BME280;35806;47.958;13.158;2022-10-16T09:51:00;95060.26;;;22.99;43.97
49915;BME280;35806;47.958;13.158;2022-10-16T09:53:39;95063.26;;;23.03;42.04
49915;BME280;35806;47.958;13.158;2022-10-16T09:56:09;95065.62;;;23.74;40.44
49915;BME280;35806;47.958;13.158;2022-10-16T09:58:36;95065.34;;;23.94;41.31
49915;BME280;35806;47.958;13.158;2022-10-16T10:01:04;95067.58;;;24.32;40.07
49915;BME280;35806;47.958;13.158;2022-10-16T10:03:36;95065.61;;;23.71;41.26
49915;BME280;35806;47.958;13.158;2022-10-16T10:06:15;95063.92;;;24.13;40.67
49915;BME280;35806;47.958;13.158;2022-10-16T10:09:19;95061.61;;;24.02;41.68
49915;BME280;35806;47.958;13.158;2022-10-16T10:11:50;95058.39;;;24.44;41.33
49915;BME280;35806;47.958;13.158;2022-10-16T10:14:23;95058.82;;;24.50;39.65
49915;BME280;35806;47.958;13.158;2022-10-16T10:16:53;95057.27;;;24.58;39.64
49915;BME280;35806;47.958;13.158;2022-10-16T10:19:28;95063.49;;;24.61;37.41
49915;BME280;35806;47.958;13.158;2022-10-16T10:21:56;95063.80;;;24.88;37.39
49915;BME280;35806;47.958;13.158;2022-10-16T10:24:23;95061.74;;;25.00;38.98
49915;BME280;35806;47.958;13.158;2022-10-16T10:26:56;95060.42;;;24.74;38.67
49915;BME280;35806;47.958;13.158;2022-10-16T10:29:34;95065.75;;;25.84;36.33
49915;BME280;35806;47.958;13.158;2022-10-16T10:32:17;95063.63;;;25.14;39.00
49915;BME280;35806;47.958;13.158;2022-10-16T10:35:00;95062.67;;;25.03;37.22
49915;BME280;35806;47.958;13.158;2022-10-16T10:37:41;95061.42;;;25.18;39.31
49915;BME280;35806;47.958;13.158;2022-10-16T10:40:23;95060.49;;;25.96;37.53
49915;BME280;35806;47.958;13.158;2022-10-16T10:43:00;95062.39;;;25.82;36.42
49915;BME280;35806;47.958;13.158;2022-10-16T10:45:39;95062.44;;;26.10;37.28
49915;BME280;35806;47.958;13.158;2022-10-16T10:48:21;95065.89;;;25.41;37.73
49915;BME280;35806;47.958;13.158;2022-10-16T10:50:56;95067.53;;;25.93;36.79
49915;BME280;35806;47.958;13.158;2022-10-16T10:53:33;95070.35;;;26.25;36.32
49915;BME280;35806;47.958;13.158;2022-10-16T10:56:16;95070.68;;;26.23;37.02
49915;BME280;35806;47.958;13.158;2022-10-16T10:59:07;95067.94;;;26.43;37.37
49915;BME280;35806;47.958;13.158;2022-10-16T11:01:46;95063.61;;;26.42;36.79
49915;BME280;35806;47.958;13.158;2022-10-16T11:04:29;95065.79;;;26.53;36.23
49915;BME280;35806;47.958;13.158;2022-10-16T11:07:03;95066.61;;;26.68;36.36
49915;BME280;35806;47.958;13.158;2022-10-16T11:09:35;95065.53;;;26.86;36.81
49915;BME280;35806;47.958;13.158;2022-10-16T11:12:07;95060.67;;;27.13;35.57
49915;BME280;35806;47.958;13.158;2022-10-16T11:14:41;95055.48;;;27.24;36.29
49915;BME280;35806;47.958;13.158;2022-10-16T11:17:14;95054.46;;;26.99;35.86
49915;BME280;35806;47.958;13.158;2022-10-16T11:19:48;95052.97;;;27.61;35.32
49915;BME280;35806;47.958;13.158;2022-10-16T11:22:19;95052.82;;;27.64;34.94
49915;BME280;35806;47.958;13.158;2022-10-16T11:24:53;95053.47;;;27.22;37.52
49915;BME280;35806;47.958;13.158;2022-10-16T11:27:30;95055.59;;;27.72;35.54
49915;BME280;35806;47.958;13.158;2022-10-16T11:30:13;95056.35;;;27.26;34.78
49915;BME280;35806;47.958;13.158;2022-10-16T11:32:52;95056.24;;;27.20;34.89
49915;BME280;35806;47.958;13.158;2022-10-16T11:35:25;95053.56;;;27.88;33.41
49915;BME280;35806;47.958;13.158;2022-10-16T11:37:59;95048.03;;;27.85;34.46
49915;BME280;35806;47.958;13.158;2022-10-16T11:40:32;95047.83;;;28.21;33.90
49915;BME280;35806;47.958;13.158;2022-10-16T11:43:06;95045.13;;;28.13;31.08
49915;BME280;35806;47.958;13.158;2022-10-16T11:45:41;95045.53;;;27.25;29.74
49915;BME280;35806;47.958;13.158;2022-10-16T11:48:18;95045.87;;;28.36;29.89
49915;BME280;35806;47.958;13.158;2022-10-16T11:50:51;95042.61;;;27.45;30.85
49915;BME280;35806;47.958;13.158;2022-10-16T11:53:27;95039.43;;;27.99;33.22
49915;BME280;35806;47.958;13.158;2022-10-16T11:55:58;95041.71;;;28.31;32.80
49915;BME280;35806;47.958;13.158;2022-10-16T11:58:28;95043.66;;;28.33;33.82
49915;BME280;35806;47.958;13.158;2022-10-16T12:01:05;95038.65;;;28.76;30.74
49915;BME280;35806;47.958;13.158;2022-10-16T12:03:42;95042.20;;;28.48;30.42
49915;BME280;35806;47.958;13.158;2022-10-16T12:06:22;95040.86;;;28.00;31.25
49915;BME280;35806;47.958;13.158;2022-10-16T12:08:51;95043.02;;;28.24;31.41
49915;BME280;35806;47.958;13.158;2022-10-16T12:11:32;95040.63;;;28.66;31.18
49915;BME280;35806;47.958;13.158;2022-10-16T12:14:05;95035.58;;;28.87;32.75
49915;BME280;35806;47.958;13.158;2022-10-16T12:16:33;95033.21;;;29.46;33.14
49915;BME280;35806;47.958;13.158;2022-10-16T12:19:11;95027.40;;;29.20;31.96
49915;BME280;35806;47.958;13.158;2022-10-16T12:21:39;95026.02;;;29.26;30.90
49915;BME280;35806;47.958;13.158;2022-10-16T12:24:21;95026.06;;;28.92;29.16
49915;BME280;35806;47.958;13.158;2022-10-16T12:26:50;95027.78;;;28.71;30.05
49915;BME280;35806;47.958;13.158;2022-10-16T12:29:26;95027.50;;;29.01;32.10
49915;BME280;35806;47.958;13.158;2022-10-16T12:31:55;95030.94;;;29.51;31.51
49915;BME280;35806;47.958;13.158;2022-10-16T12:34:27;95035.31;;;29.65;31.53
49915;BME280;35806;47.958;13.158;2022-10-16T12:36:56;95034.06;;;29.94;31.31
49915;BME280;35806;47.958;13.158;2022-10-16T12:39:33;95035.54;;;29.78;28.58
49915;BME280;35806;47.958;13.158;2022-10-16T12:42:04;95034.42;;;29.80;28.49
49915;BME280;35806;47.958;13.158;2022-10-16T12:44:34;95029.74;;;29.29;27.97
49915;BME280;35806;47.958;13.158;2022-10-16T12:47:02;95031.12;;;29.40;27.72
49915;BME280;35806;47.958;13.158;2022-10-16T12:49:34;95031.99;;;29.20;27.31
49915;BME280;35806;47.958;13.158;2022-10-16T12:52:02;95036.61;;;29.32;27.77
49915;BME280;35806;47.958;13.158;2022-10-16T12:54:31;95036.28;;;29.05;27.34
49915;BME280;35806;47.958;13.158;2022-10-16T12:57:26;95036.62;;;29.04;28.56
49915;BME280;35806;47.958;13.158;2022-10-16T13:00:03;95038.43;;;29.35;28.24
49915;BME280;35806;47.958;13.158;2022-10-16T13:02:49;95039.33;;;29.40;27.24
49915;BME280;35806;47.958;13.158;2022-10-16T13:05:27;95040.90;;;29.10;27.50
49915;BME280;35806;47.958;13.158;2022-10-16T13:08:09;95043.80;;;28.98;27.06
49915;BME280;35806;47.958;13.158;2022-10-16T13:10:51;95044.29;;;28.62;27.42
49915;BME280;35806;47.958;13.158;2022-10-16T13:13:53;95043.28;;;29.32;28.22
49915;BME280;35806;47.958;13.158;2022-10-16T13:16:29;95042.72;;;28.62;26.19
49915;BME280;35806;47.958;13.158;2022-10-16T13:19:08;95041.68;;;28.82;29.03
49915;BME280;35806;47.958;13.158;2022-10-16T13:21:47;95038.17;;;29.07;27.01
49915;BME280;35806;47.958;13.158;2022-10-16T13:24:27;95043.33;;;29.01;26.86